createdAt,value
2022-09-14T00:00:38.915Z,9.745537
2022-09-14T00:01:38.959Z,9.745403
2022-09-14T00:02:39.964Z,9.745566
2022-09-14T00:03:38.958Z,9.745461
2022-09-14T00:04:38.886Z,9.745754
2022-09-14T00:05:38.884Z,9.745432
2022-09-14T00:06:38.900Z,9.745566
2022-09-14T00:07:38.858Z,9.745645
2022-09-14T00:08:38.857Z,9.745525
2022-09-14T00:09:38.839Z,9.745532
2022-09-14T00:10:39.836Z,9.745646
2022-09-14T00:11:38.923Z,9.745452
2022-09-14T00:12:38.822Z,9.745307
2022-09-14T00:13:38.884Z,9.745466
2022-09-14T00:14:38.817Z,9.745519
2022-09-14T00:15:38.805Z,9.745618
2022-09-14T00:16:38.910Z,9.745613
2022-09-14T00:17:38.787Z,9.745658
2022-09-14T00:18:38.781Z,9.745668
2022-09-14T00:19:38.774Z,9.745582
2022-09-14T00:20:38.767Z,9.745487
2022-09-14T00:21:38.798Z,9.745415
2022-09-14T00:22:38.749Z,9.745502
2022-09-14T00:23:38.732Z,9.745120
2022-09-14T00:24:38.729Z,9.745337
2022-09-14T00:25:38.721Z,9.745617
2022-09-14T00:26:38.742Z,9.745654
2022-09-14T00:27:38.710Z,9.745480
2022-09-14T00:28:38.774Z,9.745513
2022-09-14T00:29:38.704Z,9.745487
2022-09-14T00:30:38.692Z,9.745386
2022-09-14T00:31:38.751Z,9.745672
2022-09-14T00:32:38.672Z,9.745335
2022-09-14T00:33:38.665Z,9.745146
2022-09-14T00:34:38.658Z,9.745304
2022-09-14T00:35:38.641Z,9.745431
2022-09-14T00:36:38.672Z,9.745275
2022-09-14T00:37:38.634Z,9.745487
2022-09-14T00:38:38.623Z,9.745384
2022-09-14T00:39:38.645Z,9.745481
2022-09-14T00:40:38.607Z,9.745637
2022-09-14T00:41:38.606Z,9.745517
2022-09-14T00:42:38.598Z,9.745461
2022-09-14T00:43:38.607Z,9.745316
2022-09-14T00:44:38.574Z,9.745336
2022-09-14T00:45:38.613Z,9.745317
2022-09-14T00:46:38.560Z,9.745342
2022-09-14T00:47:38.551Z,9.745425
2022-09-14T00:48:38.555Z,9.745540
2022-09-14T00:49:38.562Z,9.745593
2022-09-14T00:50:38.528Z,9.745673
2022-09-14T00:51:38.525Z,9.745436
2022-09-14T00:52:38.515Z,9.745405
2022-09-14T00:53:38.504Z,9.745288
2022-09-14T00:54:38.514Z,9.745307
2022-09-14T00:55:38.518Z,9.745405
2022-09-14T00:56:38.488Z,9.745429
2022-09-14T00:57:38.461Z,9.745481
2022-09-14T00:58:39.505Z,9.745412
2022-09-14T00:59:38.555Z,9.745394
2022-09-14T01:00:38.487Z,9.745328
2022-09-14T01:01:38.522Z,9.745567
2022-09-14T01:02:38.475Z,9.745642
2022-09-14T01:03:38.432Z,9.745504
2022-09-14T01:04:38.427Z,9.745444
2022-09-14T01:05:38.446Z,9.745437
2022-09-14T01:06:38.411Z,9.745450
2022-09-14T01:07:38.409Z,9.745683
2022-09-14T01:08:38.385Z,9.745523
2022-09-14T01:09:38.424Z,9.745557
2022-09-14T01:10:38.382Z,9.745329
2022-09-14T01:11:38.380Z,9.745394
2022-09-14T01:12:38.361Z,9.745464
2022-09-14T01:13:38.372Z,9.745610
2022-09-14T01:14:38.350Z,9.745427
2022-09-14T01:15:38.371Z,9.745435
2022-09-14T01:16:38.389Z,9.745475
2022-09-14T01:17:38.326Z,9.745472
2022-09-14T01:18:38.318Z,9.745267
2022-09-14T01:19:38.343Z,9.745079
2022-09-14T01:20:38.307Z,9.745340
2022-09-14T01:21:38.312Z,9.745346
2022-09-14T01:22:38.296Z,9.745389
2022-09-14T01:23:38.282Z,9.745381
2022-09-14T01:24:38.281Z,9.745287
2022-09-14T01:25:38.297Z,9.745441
2022-09-14T01:26:38.260Z,9.745375
2022-09-14T01:27:38.249Z,9.745332
2022-09-14T01:28:38.246Z,9.745337
2022-09-14T01:29:38.270Z,9.745386
2022-09-14T01:30:38.231Z,9.745461
2022-09-14T01:31:38.352Z,9.745377
2022-09-14T01:32:38.214Z,9.745496
2022-09-14T01:33:38.211Z,9.745424
2022-09-14T01:34:38.202Z,9.745475
2022-09-14T01:35:38.231Z,9.745471
2022-09-14T01:36:38.185Z,9.745546
2022-09-14T01:37:38.188Z,9.745506
2022-09-14T01:38:38.172Z,9.745679
2022-09-14T01:39:38.166Z,9.745629
2022-09-14T01:40:38.180Z,9.745647
2022-09-14T01:41:38.142Z,9.745579
2022-09-14T01:42:38.139Z,9.745395
2022-09-14T01:43:38.131Z,9.745411
2022-09-14T01:44:38.129Z,9.745457
2022-09-14T01:45:38.160Z,9.745497
2022-09-14T01:46:38.111Z,9.745470
2022-09-14T01:47:38.173Z,9.745557
2022-09-14T01:48:38.160Z,9.745473
2022-09-14T01:49:38.109Z,9.745443
2022-09-14T01:50:38.078Z,9.745503
2022-09-14T01:51:38.067Z,9.745503
2022-09-14T01:52:38.076Z,9.745474
2022-09-14T01:53:38.049Z,9.745603
2022-09-14T01:54:39.083Z,9.745681
2022-09-14T01:55:38.045Z,9.745547
2022-09-14T01:56:38.041Z,9.745551
2022-09-14T01:57:38.029Z,9.745379
2022-09-14T01:58:38.020Z,9.745401
2022-09-14T01:59:38.037Z,9.745363
2022-09-14T02:00:38.042Z,9.745250
2022-09-14T02:01:38.071Z,9.745559
2022-09-14T02:02:38.064Z,9.744917
2022-09-14T02:03:38.043Z,9.744883
2022-09-14T02:04:37.998Z,9.745234
2022-09-14T02:05:37.966Z,9.745658
2022-09-14T02:06:37.958Z,9.745522
2022-09-14T02:07:37.953Z,9.745557
2022-09-14T02:08:37.945Z,9.745393
2022-09-14T02:09:37.967Z,9.745174
2022-09-14T02:10:37.934Z,9.745266
2022-09-14T02:11:37.920Z,9.745323
2022-09-14T02:12:37.914Z,9.745370
2022-09-14T02:13:37.905Z,9.745437
2022-09-14T02:14:37.925Z,9.745280
2022-09-14T02:15:37.889Z,9.745049
2022-09-14T02:16:37.929Z,9.745385
2022-09-14T02:17:37.880Z,9.745474
2022-09-14T02:18:37.863Z,9.745318
2022-09-14T02:19:37.881Z,9.745232
2022-09-14T02:20:37.853Z,9.745433
2022-09-14T02:21:37.841Z,9.745649
2022-09-14T02:22:37.832Z,9.745386
2022-09-14T02:23:37.824Z,9.745083
2022-09-14T02:24:37.836Z,9.745268
2022-09-14T02:25:37.808Z,9.745377
2022-09-14T02:26:37.806Z,9.745424
2022-09-14T02:27:37.796Z,9.745274
2022-09-14T02:28:37.790Z,9.745502
2022-09-14T02:29:37.804Z,9.745328
2022-09-14T02:30:37.775Z,9.745388
2022-09-14T02:31:37.840Z,9.745472
2022-09-14T02:32:37.757Z,9.745361
2022-09-14T02:33:37.755Z,9.745325
2022-09-14T02:34:37.775Z,9.745749
2022-09-14T02:35:37.730Z,9.745485
2022-09-14T02:36:37.722Z,9.745270
2022-09-14T02:37:37.717Z,9.745360
2022-09-14T02:38:37.712Z,9.745402
2022-09-14T02:39:37.739Z,9.745519
2022-09-14T02:40:37.697Z,9.745465
2022-09-14T02:41:37.688Z,9.745410
2022-09-14T02:42:37.675Z,9.745216
2022-09-14T02:43:37.669Z,9.744994
2022-09-14T02:44:37.686Z,9.744777
2022-09-14T02:45:37.653Z,9.745289
2022-09-14T02:46:37.730Z,9.745629
2022-09-14T02:47:37.646Z,9.745758
2022-09-14T02:48:37.630Z,9.745556
2022-09-14T02:49:37.649Z,9.745319
2022-09-14T02:50:37.621Z,9.745066
2022-09-14T02:51:37.615Z,9.745073
2022-09-14T02:52:37.604Z,9.745232
2022-09-14T02:53:37.599Z,9.745530
2022-09-14T02:54:37.618Z,9.745639
2022-09-14T02:55:37.585Z,9.745525
2022-09-14T02:56:37.578Z,9.745733
2022-09-14T02:57:37.565Z,9.745691
2022-09-14T02:58:37.559Z,9.745872
2022-09-14T02:59:37.579Z,9.745680
2022-09-14T03:00:37.614Z,9.745672
2022-09-14T03:01:37.570Z,9.745688
2022-09-14T03:02:37.528Z,9.745451
2022-09-14T03:03:37.523Z,9.745459
2022-09-14T03:04:37.536Z,9.745451
2022-09-14T03:05:37.505Z,9.746518
2022-09-14T03:06:37.499Z,9.745852
2022-09-14T03:07:37.556Z,9.745686
2022-09-14T03:08:37.486Z,9.745493
2022-09-14T03:09:37.501Z,9.745636
2022-09-14T03:10:37.470Z,9.745853
2022-09-14T03:11:37.460Z,9.746216
2022-09-14T03:12:37.452Z,9.746216
2022-09-14T03:13:37.442Z,9.746216
2022-09-14T03:14:37.468Z,9.746216
2022-09-14T03:15:37.435Z,9.746216
2022-09-14T03:16:37.493Z,9.746216
2022-09-14T03:17:37.417Z,9.746216
2022-09-14T03:18:37.410Z,9.746216
2022-09-14T03:19:37.425Z,9.746216
2022-09-14T03:20:37.395Z,9.746216
2022-09-14T03:21:37.386Z,9.746216
2022-09-14T03:22:37.377Z,9.746216
2022-09-14T03:23:37.363Z,9.745641
2022-09-14T03:24:37.394Z,9.745654
2022-09-14T03:25:37.352Z,9.745656
2022-09-14T03:26:37.345Z,9.745681
2022-09-14T03:27:37.347Z,9.745653
2022-09-14T03:28:37.331Z,9.745605
2022-09-14T03:29:37.348Z,9.745668
2022-09-14T03:30:37.313Z,9.745656
2022-09-14T03:31:37.436Z,9.745617
2022-09-14T03:32:37.302Z,9.745616
2022-09-14T03:33:37.323Z,9.745636
2022-09-14T03:34:37.289Z,9.745583
2022-09-14T03:35:37.306Z,9.745543
2022-09-14T03:36:37.272Z,9.745694
2022-09-14T03:37:37.269Z,9.745663
2022-09-14T03:38:37.253Z,9.745622
2022-09-14T03:39:37.311Z,9.745651
2022-09-14T03:40:37.287Z,9.745611
2022-09-14T03:41:37.233Z,9.745556
2022-09-14T03:42:37.224Z,9.745630
2022-09-14T03:43:37.215Z,9.745557
2022-09-14T03:44:37.205Z,9.745374
2022-09-14T03:45:37.220Z,9.745481
2022-09-14T03:46:37.282Z,9.745783
2022-09-14T03:47:37.185Z,9.745711
2022-09-14T03:48:37.175Z,9.745711
2022-09-14T03:49:37.163Z,9.745711
2022-09-14T03:50:37.185Z,9.745674
2022-09-14T03:51:37.151Z,9.745608
2022-09-14T03:52:37.145Z,9.745864
2022-09-14T03:53:37.136Z,9.745586
2022-09-14T03:54:37.133Z,9.745620
2022-09-14T03:55:37.207Z,9.745597
2022-09-14T03:56:37.113Z,9.745711
2022-09-14T03:57:37.109Z,9.745666
2022-09-14T03:58:37.094Z,9.745662
2022-09-14T03:59:41.668Z,9.745606
2022-09-14T04:00:39.109Z,9.745619
2022-09-14T04:01:37.106Z,9.745634
2022-09-14T04:02:37.100Z,9.745721
2022-09-14T04:03:37.060Z,9.745635
2022-09-14T04:04:37.053Z,9.745628
2022-09-14T04:05:37.074Z,9.745709
2022-09-14T04:06:37.038Z,9.745633
2022-09-14T04:07:37.029Z,9.745695
2022-09-14T04:08:37.019Z,9.745658
2022-09-14T04:09:37.007Z,9.745677
2022-09-14T04:10:37.030Z,9.745647
2022-09-14T04:11:36.989Z,9.745588
2022-09-14T04:12:37.989Z,9.745569
2022-09-14T04:13:36.983Z,9.745696
2022-09-14T04:14:36.973Z,9.745589
2022-09-14T04:15:36.990Z,9.745655
2022-09-14T04:16:37.021Z,9.745844
2022-09-14T04:17:36.947Z,9.745641
2022-09-14T04:18:36.936Z,9.745398
2022-09-14T04:19:36.935Z,9.745719
2022-09-14T04:20:36.950Z,9.745676
2022-09-14T04:21:36.914Z,9.745691
2022-09-14T04:22:36.913Z,9.745863
2022-09-14T04:23:51.358Z,9.745703
2022-09-14T04:24:38.895Z,9.745571
2022-09-14T04:25:36.911Z,9.745658
2022-09-14T04:26:36.882Z,9.745652
2022-09-14T04:27:36.872Z,9.745612
2022-09-14T04:28:36.866Z,9.745605
2022-09-14T04:29:36.860Z,9.745710
2022-09-14T04:30:36.872Z,9.745819
2022-09-14T04:31:36.903Z,9.745646
2022-09-14T04:32:36.831Z,9.745806
2022-09-14T04:33:36.824Z,9.745609
2022-09-14T04:34:36.827Z,9.745625
2022-09-14T04:35:36.835Z,9.745273
2022-09-14T04:36:36.801Z,9.745337
2022-09-14T04:37:36.793Z,9.745439
2022-09-14T04:38:36.785Z,9.745638
2022-09-14T04:39:36.777Z,9.745519
2022-09-14T04:40:36.794Z,9.745537
2022-09-14T04:41:36.770Z,9.745391
2022-09-14T04:42:36.762Z,9.745594
2022-09-14T04:43:36.748Z,9.745620
2022-09-14T04:44:36.755Z,9.745614
2022-09-14T04:45:36.766Z,9.745468
2022-09-14T04:46:36.797Z,9.745552
2022-09-14T04:47:36.717Z,9.745588
2022-09-14T04:48:36.710Z,9.745720
2022-09-14T04:49:36.700Z,9.745703
2022-09-14T04:50:36.721Z,9.745780
2022-09-14T04:51:36.685Z,9.745471
2022-09-14T04:52:36.675Z,9.745617
2022-09-14T04:53:36.673Z,9.745687
2022-09-14T04:54:36.659Z,9.745629
2022-09-14T04:55:36.651Z,9.745478
2022-09-14T04:56:36.669Z,9.745528
2022-09-14T04:57:36.634Z,9.745593
2022-09-14T04:58:36.629Z,9.745662
2022-09-14T04:59:36.617Z,9.745558
2022-09-14T05:00:36.615Z,9.745492
2022-09-14T05:01:36.853Z,9.745715
2022-09-14T05:02:36.642Z,9.745613
2022-09-14T05:03:36.599Z,9.745503
2022-09-14T05:04:36.660Z,9.745401
2022-09-14T05:05:36.577Z,9.745497
2022-09-14T05:06:36.597Z,9.745757
2022-09-14T05:07:36.563Z,9.745644
2022-09-14T05:08:36.556Z,9.745610
2022-09-14T05:09:36.553Z,9.745665
2022-09-14T05:10:36.542Z,9.745533
2022-09-14T05:11:36.560Z,9.745605
2022-09-14T05:12:36.528Z,9.745483
2022-09-14T05:13:36.508Z,9.745558
2022-09-14T05:14:37.514Z,9.745610
2022-09-14T05:15:36.603Z,9.745548
2022-09-14T05:16:36.525Z,9.745593
2022-09-14T05:17:36.489Z,9.745594
2022-09-14T05:18:36.482Z,9.745608
2022-09-14T05:19:36.474Z,9.745599
2022-09-14T05:20:37.261Z,9.745605
2022-09-14T05:21:36.485Z,9.745522
2022-09-14T05:22:36.460Z,9.745713
2022-09-14T05:23:36.496Z,9.745677
2022-09-14T05:24:36.434Z,9.745674
2022-09-14T05:25:36.427Z,9.745692
2022-09-14T05:26:36.449Z,9.745843
2022-09-14T05:27:36.418Z,9.745686
2022-09-14T05:28:36.406Z,9.745564
2022-09-14T05:29:36.399Z,9.745618
2022-09-14T05:30:36.395Z,9.745670
2022-09-14T05:31:36.455Z,9.745727
2022-09-14T05:32:36.393Z,9.745701
2022-09-14T05:33:36.373Z,9.745679
2022-09-14T05:34:36.365Z,9.745690
2022-09-14T05:35:36.357Z,9.745618
2022-09-14T05:36:36.371Z,9.745720
2022-09-14T05:37:36.339Z,9.745308
2022-09-14T05:38:36.333Z,9.745456
2022-09-14T05:39:36.321Z,9.745518
2022-09-14T05:40:36.314Z,9.745400
2022-09-14T05:41:36.331Z,9.745511
2022-09-14T05:42:36.319Z,9.745609
2022-09-14T05:43:36.292Z,9.745658
2022-09-14T05:44:36.283Z,9.745403
2022-09-14T05:45:36.277Z,9.745648
2022-09-14T05:46:36.355Z,9.745657
2022-09-14T05:47:39.099Z,9.745643
2022-09-14T05:48:37.254Z,9.745657
2022-09-14T05:49:36.249Z,9.745643
2022-09-14T05:50:36.238Z,9.745686
2022-09-14T05:51:36.261Z,9.745693
2022-09-14T05:52:36.223Z,9.745688
2022-09-14T05:53:36.221Z,9.745670
2022-09-14T05:54:36.208Z,9.745652
2022-09-14T05:55:36.206Z,9.745646
2022-09-14T05:56:36.226Z,9.745688
2022-09-14T05:57:36.191Z,9.745625
2022-09-14T05:58:36.175Z,9.745621
2022-09-14T05:59:36.171Z,9.745663
2022-09-14T06:00:36.167Z,9.745681
2022-09-14T06:01:36.242Z,9.745689
2022-09-14T06:02:36.146Z,9.745709
2022-09-14T06:03:36.141Z,9.745651
2022-09-14T06:04:36.132Z,9.745512
2022-09-14T06:05:36.212Z,9.745692
2022-09-14T06:06:36.138Z,9.745587
2022-09-14T06:07:36.106Z,9.745576
2022-09-14T06:08:36.100Z,9.745482
2022-09-14T06:09:36.091Z,9.745605
2022-09-14T06:10:36.085Z,9.745536
2022-09-14T06:11:36.097Z,9.745605
2022-09-14T06:12:36.063Z,9.745639
2022-09-14T06:13:36.059Z,9.745679
2022-09-14T06:14:36.049Z,9.745802
2022-09-14T06:15:36.030Z,9.745791
2022-09-14T06:16:37.060Z,9.745718
2022-09-14T06:17:36.029Z,9.745741
2022-09-14T06:18:36.019Z,9.745657
2022-09-14T06:19:36.013Z,9.745713
2022-09-14T06:20:36.001Z,9.745635
2022-09-14T06:21:36.049Z,9.745598
2022-09-14T06:22:35.989Z,9.745649
2022-09-14T06:23:35.976Z,9.745689
2022-09-14T06:24:35.972Z,9.745728
2022-09-14T06:25:35.965Z,9.745863
2022-09-14T06:26:35.986Z,9.745601
2022-09-14T06:27:35.949Z,9.745627
2022-09-14T06:28:35.943Z,9.745723
2022-09-14T06:29:35.938Z,9.745772
2022-09-14T06:30:35.938Z,9.745726
2022-09-14T06:31:35.924Z,9.745780
2022-09-14T06:32:35.935Z,9.745726
2022-09-14T06:33:35.909Z,9.745607
2022-09-14T06:34:35.902Z,9.745433
2022-09-14T06:35:35.954Z,9.745959
2022-09-14T06:36:35.925Z,9.745901
2022-09-14T06:37:35.900Z,9.745644
2022-09-14T06:38:35.866Z,9.745626
2022-09-14T06:39:35.864Z,9.745449
2022-09-14T06:40:35.874Z,9.745603
2022-09-14T06:41:35.875Z,9.745683
2022-09-14T06:42:35.866Z,9.745637
2022-09-14T06:43:35.837Z,9.745459
2022-09-14T06:44:35.830Z,9.745416
2022-09-14T06:45:35.819Z,9.745419
2022-09-14T06:46:35.814Z,9.745602
2022-09-14T06:47:35.827Z,9.745854
2022-09-14T06:48:35.796Z,9.745629
2022-09-14T06:49:35.784Z,9.745684
2022-09-14T06:50:35.774Z,9.745664
2022-09-14T06:51:36.774Z,9.745401
2022-09-14T06:52:35.790Z,9.745683
2022-09-14T06:53:35.757Z,9.745722
2022-09-14T06:54:35.748Z,9.745598
2022-09-14T06:55:35.744Z,9.745593
2022-09-14T06:56:35.755Z,9.745712
2022-09-14T06:57:35.720Z,9.745814
2022-09-14T06:58:36.719Z,9.745645
2022-09-14T06:59:35.711Z,9.745611
2022-09-14T07:00:35.710Z,9.745621
2022-09-14T07:01:35.716Z,9.745567
2022-09-14T07:02:35.747Z,9.745453
2022-09-14T07:03:35.682Z,9.745524
2022-09-14T07:04:35.673Z,9.745564
2022-09-14T07:05:35.662Z,9.745654
2022-09-14T07:06:35.682Z,9.745633
2022-09-14T07:07:35.644Z,9.745440
2022-09-14T07:08:35.643Z,9.745577
2022-09-14T07:09:35.627Z,9.745505
2022-09-14T07:10:35.618Z,9.745557
2022-09-14T07:11:35.643Z,9.745662
2022-09-14T07:12:35.605Z,9.745560
2022-09-14T07:13:35.601Z,9.745490
2022-09-14T07:14:35.586Z,9.745468
2022-09-14T07:15:35.584Z,9.745491
2022-09-14T07:16:35.598Z,9.745466
2022-09-14T07:17:35.564Z,9.745323
2022-09-14T07:18:35.559Z,9.745442
2022-09-14T07:19:35.549Z,9.745573
2022-09-14T07:20:35.546Z,9.745524
2022-09-14T07:21:35.557Z,9.745642
2022-09-14T07:22:35.527Z,9.745526
2022-09-14T07:23:35.516Z,9.745542
2022-09-14T07:24:35.511Z,9.745523
2022-09-14T07:25:35.503Z,9.745721
2022-09-14T07:26:35.521Z,9.745685
2022-09-14T07:27:35.487Z,9.745410
2022-09-14T07:28:35.478Z,9.745522
2022-09-14T07:29:35.467Z,9.745510
2022-09-14T07:30:35.483Z,9.745687
2022-09-14T07:31:35.479Z,9.745541
2022-09-14T07:32:35.443Z,9.745466
2022-09-14T07:33:35.440Z,9.745360
2022-09-14T07:34:35.433Z,9.745420
2022-09-14T07:35:35.446Z,9.745593
2022-09-14T07:36:35.467Z,9.745620
2022-09-14T07:37:35.407Z,9.745556
2022-09-14T07:38:51.594Z,9.745370
2022-09-14T07:39:37.394Z,9.745572
2022-09-14T07:40:35.383Z,9.745627
2022-09-14T07:41:35.397Z,9.745505
2022-09-14T07:42:35.368Z,9.745581
2022-09-14T07:43:35.365Z,9.745617
2022-09-14T07:44:35.357Z,9.745714
2022-09-14T07:45:35.400Z,9.745688
2022-09-14T07:46:35.448Z,9.745567
2022-09-14T07:47:35.332Z,9.745474
2022-09-14T07:48:35.350Z,9.745502
2022-09-14T07:49:35.315Z,9.745564
2022-09-14T07:50:35.308Z,9.745419
2022-09-14T07:51:35.327Z,9.745528
2022-09-14T07:52:38.569Z,9.745593
2022-09-14T07:53:36.288Z,9.745196
2022-09-14T07:54:35.285Z,9.745361
2022-09-14T07:55:35.271Z,9.745449
2022-09-14T07:56:35.386Z,9.745369
2022-09-14T07:57:55.049Z,9.745324
2022-09-14T07:58:37.246Z,9.745515
2022-09-14T07:59:36.960Z,9.745482
2022-09-14T08:00:36.226Z,9.745527
2022-09-14T08:01:35.302Z,9.745546
2022-09-14T08:02:35.275Z,9.745493
2022-09-14T08:03:35.206Z,9.745194
2022-09-14T08:04:35.196Z,9.745337
2022-09-14T08:05:35.191Z,9.745563
2022-09-14T08:06:35.210Z,9.745420
2022-09-14T08:07:35.177Z,9.745401
2022-09-14T08:08:35.167Z,9.745455
2022-09-14T08:09:35.161Z,9.745333
2022-09-14T08:10:35.155Z,9.745503
2022-09-14T08:11:35.172Z,9.745354
2022-09-14T08:12:35.141Z,9.745478
2022-09-14T08:13:35.128Z,9.745045
2022-09-14T08:14:35.120Z,9.744974
2022-09-14T08:15:35.119Z,9.745439
2022-09-14T08:16:35.204Z,9.745546
2022-09-14T08:17:35.097Z,9.745637
2022-09-14T08:18:35.096Z,9.745461
2022-09-14T08:19:35.085Z,9.745277
2022-09-14T08:20:35.077Z,9.745417
2022-09-14T08:21:35.093Z,9.745479
2022-09-14T08:22:35.062Z,9.745618
2022-09-14T08:23:35.054Z,9.745442
2022-09-14T08:24:35.048Z,9.745235
2022-09-14T08:25:35.039Z,9.745405
2022-09-14T08:26:35.020Z,9.745385
2022-09-14T08:27:36.052Z,9.745831
2022-09-14T08:28:35.017Z,9.745619
2022-09-14T08:29:35.024Z,9.745606
2022-09-14T08:30:35.005Z,9.745547
2022-09-14T08:31:35.045Z,9.745625
2022-09-14T08:32:35.016Z,9.745609
2022-09-14T08:33:34.988Z,9.745407
2022-09-14T08:34:34.973Z,9.745597
2022-09-14T08:35:56.375Z,9.745684
2022-09-14T08:36:36.961Z,9.745351
2022-09-14T08:37:34.976Z,9.745436
2022-09-14T08:38:34.973Z,9.745233
2022-09-14T08:39:34.952Z,9.745257
2022-09-14T08:40:34.992Z,9.745543
2022-09-14T08:41:34.927Z,9.745678
2022-09-14T08:42:34.918Z,9.745812
2022-09-14T08:43:34.932Z,9.745394
2022-09-14T08:44:34.899Z,9.745452
2022-09-14T08:45:34.965Z,9.745813
2022-09-14T08:46:34.885Z,9.745976
2022-09-14T08:47:34.886Z,9.745834
2022-09-14T08:48:34.896Z,9.745452
2022-09-14T08:49:34.865Z,9.745361
2022-09-14T08:50:38.749Z,9.745448
2022-09-14T08:51:35.859Z,9.745448
2022-09-14T08:52:34.843Z,9.745522
2022-09-14T08:53:34.859Z,9.745493
2022-09-14T08:54:34.826Z,9.745420
2022-09-14T08:55:34.844Z,9.745447
2022-09-14T08:56:34.853Z,9.745449
2022-09-14T08:57:34.801Z,9.745623
2022-09-14T08:58:40.595Z,9.745620
2022-09-14T08:59:35.875Z,9.745449
2022-09-14T09:00:34.840Z,9.745208
2022-09-14T09:01:34.777Z,9.744795
2022-09-14T09:02:34.769Z,9.745153
2022-09-14T09:03:34.849Z,9.745294
2022-09-14T09:04:34.752Z,9.745587
2022-09-14T09:05:34.742Z,9.745475
2022-09-14T09:06:34.740Z,9.745319
2022-09-14T09:07:34.726Z,9.745331
2022-09-14T09:08:34.747Z,9.745400
2022-09-14T09:09:34.731Z,9.745733
2022-09-14T09:10:34.710Z,9.745783
2022-09-14T09:11:34.701Z,9.745635
2022-09-14T09:12:34.694Z,9.745600
2022-09-14T09:13:34.703Z,9.745445
2022-09-14T09:14:34.667Z,9.745437
2022-09-14T09:15:34.666Z,9.745630
2022-09-14T09:16:34.729Z,9.745464
2022-09-14T09:17:34.652Z,9.745547
2022-09-14T09:18:34.645Z,9.745540
2022-09-14T09:19:34.665Z,9.745597
2022-09-14T09:20:34.629Z,9.745660
2022-09-14T09:21:34.612Z,9.745391
2022-09-14T09:22:34.605Z,9.745121
2022-09-14T09:23:34.625Z,9.745353
2022-09-14T09:24:37.238Z,9.745324
2022-09-14T09:25:35.584Z,9.745489
2022-09-14T09:26:34.582Z,9.745449
2022-09-14T09:27:34.576Z,9.745560
2022-09-14T09:28:34.594Z,9.745542
2022-09-14T09:29:34.553Z,9.745444
2022-09-14T09:30:34.551Z,9.745487
2022-09-14T09:31:34.579Z,9.745391
2022-09-14T09:32:34.537Z,9.745543
2022-09-14T09:33:34.564Z,9.745653
2022-09-14T09:34:34.518Z,9.745770
2022-09-14T09:35:34.509Z,9.745814
2022-09-14T09:36:34.501Z,9.745924
2022-09-14T09:37:34.496Z,9.745879
2022-09-14T09:38:34.523Z,9.745646
2022-09-14T09:39:34.477Z,9.745590
2022-09-14T09:40:34.538Z,9.745624
2022-09-14T09:41:34.463Z,9.745507
2022-09-14T09:42:34.457Z,9.745615
2022-09-14T09:43:49.022Z,9.745634
2022-09-14T09:44:36.448Z,9.745670
2022-09-14T09:45:34.433Z,9.745677
2022-09-14T09:46:34.538Z,9.745414
2022-09-14T09:47:34.480Z,9.745636
2022-09-14T09:48:34.441Z,9.745646
2022-09-14T09:49:34.424Z,9.745591
2022-09-14T09:50:34.394Z,9.745707
2022-09-14T09:51:34.379Z,9.745631
2022-09-14T09:52:34.373Z,9.745575
2022-09-14T09:53:34.422Z,9.745548
2022-09-14T09:54:34.363Z,9.745508
2022-09-14T09:55:34.351Z,9.745458
2022-09-14T09:56:34.332Z,9.745355
2022-09-14T09:57:35.341Z,9.745468
2022-09-14T09:58:34.323Z,9.745730
2022-09-14T09:59:34.345Z,9.745451
2022-09-14T10:00:34.385Z,9.745588
2022-09-14T10:01:34.428Z,9.745630
2022-09-14T10:02:34.350Z,9.745525
2022-09-14T10:03:34.332Z,9.745280
2022-09-14T10:04:34.286Z,9.745231
2022-09-14T10:05:34.275Z,9.745275
2022-09-14T10:06:34.262Z,9.745373
2022-09-14T10:07:34.261Z,9.745498
2022-09-14T10:08:34.297Z,9.745384
2022-09-14T10:09:34.245Z,9.745106
2022-09-14T10:10:34.240Z,9.745235
2022-09-14T10:11:35.054Z,9.745217
2022-09-14T10:12:34.220Z,9.745502
2022-09-14T10:13:37.799Z,9.745469
2022-09-14T10:14:35.202Z,9.745442
2022-09-14T10:15:34.197Z,9.745570
2022-09-14T10:16:34.234Z,9.745618
2022-09-14T10:17:34.189Z,9.745489
2022-09-14T10:18:34.173Z,9.745684
2022-09-14T10:19:34.194Z,9.745692
2022-09-14T10:20:34.156Z,9.745646
2022-09-14T10:21:34.161Z,9.745543
2022-09-14T10:22:34.184Z,9.745429
2022-09-14T10:23:34.154Z,9.745110
2022-09-14T10:24:34.133Z,9.745579
2022-09-14T10:25:34.123Z,9.745579
2022-09-14T10:26:34.110Z,9.745424
2022-09-14T10:27:37.822Z,9.745460
2022-09-14T10:28:35.114Z,9.745607
2022-09-14T10:29:34.083Z,9.745604
2022-09-14T10:30:34.076Z,9.745716
2022-09-14T10:31:34.143Z,9.745581
2022-09-14T10:32:34.069Z,9.745410
2022-09-14T10:33:34.075Z,9.745480
2022-09-14T10:34:34.039Z,9.745308
2022-09-14T10:35:34.045Z,9.745354
2022-09-14T10:36:34.031Z,9.745410
2022-09-14T10:37:34.026Z,9.745482
2022-09-14T10:38:34.039Z,9.745595
2022-09-14T10:39:34.009Z,9.745556
2022-09-14T10:40:34.100Z,9.745454
2022-09-14T10:41:33.988Z,9.745420
2022-09-14T10:42:33.980Z,9.745363
2022-09-14T10:43:33.995Z,9.745407
2022-09-14T10:44:33.959Z,9.745479
2022-09-14T10:45:33.961Z,9.745394
2022-09-14T10:46:34.028Z,9.745532
2022-09-14T10:47:33.941Z,9.745461
2022-09-14T10:48:33.962Z,9.745443
2022-09-14T10:49:33.922Z,9.745497
2022-09-14T10:50:33.920Z,9.745497
2022-09-14T10:51:33.918Z,9.745497
2022-09-14T10:52:33.911Z,9.745666
2022-09-14T10:53:33.928Z,9.745647
2022-09-14T10:54:33.894Z,9.745584
2022-09-14T10:55:33.888Z,9.745598
2022-09-14T10:56:33.877Z,9.745672
2022-09-14T10:57:33.871Z,9.745726
2022-09-14T10:58:33.891Z,9.745418
2022-09-14T10:59:33.859Z,9.745605
2022-09-14T11:00:33.846Z,9.745680
2022-09-14T11:01:33.867Z,9.745380
2022-09-14T11:02:33.933Z,9.745394
2022-09-14T11:03:33.855Z,9.745392
2022-09-14T11:04:33.814Z,9.745411
2022-09-14T11:05:33.797Z,9.745459
2022-09-14T11:06:33.794Z,9.745315
2022-09-14T11:07:33.787Z,9.745289
2022-09-14T11:08:33.798Z,9.745441
2022-09-14T11:09:33.769Z,9.745302
2022-09-14T11:10:33.766Z,9.745411
2022-09-14T11:11:33.748Z,9.745500
2022-09-14T11:12:34.747Z,9.745480
2022-09-14T11:13:33.765Z,9.745490
2022-09-14T11:14:33.732Z,9.745452
2022-09-14T11:15:33.758Z,9.745477
2022-09-14T11:16:33.712Z,9.745390
2022-09-14T11:17:33.720Z,9.745424
2022-09-14T11:18:33.726Z,9.745510
2022-09-14T11:19:33.698Z,9.745488
2022-09-14T11:20:33.693Z,9.745234
2022-09-14T11:21:33.678Z,9.745253
2022-09-14T11:22:33.666Z,9.745666
2022-09-14T11:23:33.683Z,9.745369
2022-09-14T11:24:33.650Z,9.745234
2022-09-14T11:25:33.644Z,9.745385
2022-09-14T11:26:33.632Z,9.745323
2022-09-14T11:27:33.636Z,9.745137
2022-09-14T11:28:33.649Z,9.745234
2022-09-14T11:29:33.609Z,9.745693
2022-09-14T11:30:33.605Z,9.746122
2022-09-14T11:31:33.706Z,9.746044
2022-09-14T11:32:33.594Z,9.745770
2022-09-14T11:33:33.612Z,9.745487
2022-09-14T11:34:33.574Z,9.745353
2022-09-14T11:35:33.565Z,9.745761
2022-09-14T11:36:33.556Z,9.745697
2022-09-14T11:37:33.547Z,9.745677
2022-09-14T11:38:33.542Z,9.745563
2022-09-14T11:39:33.558Z,9.745450
2022-09-14T11:40:33.605Z,9.745579
2022-09-14T11:41:33.519Z,9.745550
2022-09-14T11:42:33.511Z,9.745541
2022-09-14T11:43:33.527Z,9.745510
2022-09-14T11:44:33.493Z,9.745489